Time;durP1;ratioP1;P1;durP2;ratioP2;P2;SDS_P1;SDS_P2;PMS_P1;PMS_P2;Temp;Humidity;BMP_temperature;BMP_pressure;BME280_temperature;BME280_humidity;BME280_pressure;Samples;Min_cycle;Max_cycle;Signal;HPM_P1;HPM_P2
2023/10/03 00:01:05;;;;;;;10.73;3.65;;;;;;;;;;5075308;28;20055;-80
2023/10/03 00:03:35;;;;;;;10.40;2.17;;;;;;;;;;5075270;28;20044;-78
2023/10/03 00:06:07;;;;;;;8.05;3.08;;;;;;;;;;5056054;28;20048;-80
2023/10/03 00:08:38;;;;;;;7.00;3.17;;;;;;;;;;5057637;28;20048;-81
2023/10/03 00:11:19;;;;;;;9.70;3.40;;;;;;;;;;5075183;28;20049;-79
2023/10/03 00:13:52;;;;;;;9.52;3.75;;;;;;;;;;5056316;28;20075;-80
2023/10/03 00:16:22;;;;;;;7.75;2.90;;;;;;;;;;5057567;28;20048;-80
2023/10/03 00:18:52;;;;;;;9.82;3.85;;;;;;;;;;5057478;28;20064;-78
2023/10/03 00:21:22;;;;;;;10.30;3.13;;;;;;;;;;5073736;28;20048;-82
2023/10/03 00:23:52;;;;;;;9.40;3.80;;;;;;;;;;5050001;28;20059;-79
2023/10/03 00:26:22;;;;;;;14.05;3.97;;;;;;;;;;5073823;28;20041;-78
2023/10/03 00:28:52;;;;;;;17.88;4.20;;;;;;;;;;5071532;28;20045;-80
2023/10/03 00:31:22;;;;;;;10.38;2.80;;;;;;;;;;5073532;28;20044;-79
2023/10/03 00:33:53;;;;;;;5.82;2.30;;;;;;;;;;5073728;28;20383;-79
2023/10/03 00:36:24;;;;;;;8.48;3.30;;;;;;;;;;5074164;28;20491;-79
2023/10/03 00:38:55;;;;;;;6.20;2.92;;;;;;;;;;5074553;28;20036;-80
2023/10/03 00:41:25;;;;;;;12.25;2.75;;;;;;;;;;5074252;28;20044;-79
2023/10/03 00:43:59;;;;;;;9.32;2.58;;;;;;;;;;5055904;28;20403;-79
2023/10/03 00:46:30;;;;;;;10.68;3.42;;;;;;;;;;5074959;28;20055;-79
2023/10/03 00:49:14;;;;;;;7.55;3.40;;;;;;;;;;5074076;28;20478;-79
2023/10/03 00:51:45;;;;;;;10.52;2.58;;;;;;;;;;5072306;28;20036;-79
2023/10/03 00:54:16;;;;;;;17.52;4.00;;;;;;;;;;5071108;28;20071;-81
2023/10/03 00:56:47;;;;;;;7.95;3.13;;;;;;;;;;5073555;28;20056;-80
2023/10/03 00:59:17;;;;;;;7.35;2.72;;;;;;;;;;5073395;28;20044;-81
2023/10/03 01:01:49;;;;;;;9.05;3.20;;;;;;;;;;5055078;28;20510;-80
2023/10/03 01:04:19;;;;;;;9.63;3.33;;;;;;;;;;5072435;28;20528;-80
2023/10/03 01:06:50;;;;;;;9.95;3.40;;;;;;;;;;5054484;28;20486;-80
2023/10/03 01:09:24;;;;;;;6.93;3.00;;;;;;;;;;5073177;28;20044;-80
2023/10/03 01:11:56;;;;;;;5.78;2.50;;;;;;;;;;5070715;28;20041;-80
2023/10/03 01:14:27;;;;;;;12.43;3.55;;;;;;;;;;5054421;28;20056;-80
2023/10/03 01:16:57;;;;;;;8.75;3.00;;;;;;;;;;5053366;28;20111;-78
2023/10/03 01:19:30;;;;;;;9.65;3.95;;;;;;;;;;5072968;28;20048;-78
2023/10/03 01:22:00;;;;;;;7.20;3.13;;;;;;;;;;5070979;28;20049;-79
2023/10/03 01:24:30;;;;;;;11.45;3.35;;;;;;;;;;5073872;28;20405;-80
2023/10/03 01:27:01;;;;;;;9.40;3.40;;;;;;;;;;5054893;28;20049;-81
2023/10/03 01:29:31;;;;;;;10.65;3.97;;;;;;;;;;5054063;28;20053;-81
2023/10/03 01:32:01;;;;;;;11.85;3.83;;;;;;;;;;5038489;28;20052;-79
2023/10/03 01:34:31;;;;;;;9.70;3.50;;;;;;;;;;5073366;28;20063;-80
2023/10/03 01:37:02;;;;;;;9.98;3.17;;;;;;;;;;5073346;28;20493;-80
2023/10/03 01:39:34;;;;;;;12.02;4.03;;;;;;;;;;5055298;28;20052;-81
2023/10/03 01:42:03;;;;;;;12.65;3.58;;;;;;;;;;5071174;28;20052;-80
2023/10/03 01:44:34;;;;;;;9.40;3.10;;;;;;;;;;5054794;28;20410;-80
2023/10/03 01:47:04;;;;;;;8.77;3.28;;;;;;;;;;5073338;28;20403;-78
2023/10/03 01:49:35;;;;;;;9.30;3.50;;;;;;;;;;5072542;28;20045;-82
2023/10/03 01:52:05;;;;;;;7.35;3.00;;;;;;;;;;5054662;28;20048;-77
2023/10/03 01:54:38;;;;;;;9.02;3.53;;;;;;;;;;5053769;28;20056;-78
2023/10/03 01:57:08;;;;;;;10.95;3.47;;;;;;;;;;5073421;28;20059;-77
2023/10/03 01:59:38;;;;;;;8.98;3.40;;;;;;;;;;5054339;28;20048;-77
2023/10/03 02:02:10;;;;;;;7.45;3.40;;;;;;;;;;5055032;28;20114;-80
2023/10/03 02:04:40;;;;;;;9.38;3.70;;;;;;;;;;5054620;28;20048;-77
2023/10/03 02:07:11;;;;;;;10.32;4.72;;;;;;;;;;5054518;28;20064;-79
2023/10/03 02:09:41;;;;;;;11.70;4.60;;;;;;;;;;5052158;28;20510;-78
2023/10/03 02:12:12;;;;;;;7.63;2.90;;;;;;;;;;5054781;28;20040;-77
2023/10/03 02:14:43;;;;;;;11.25;3.83;;;;;;;;;;5039171;28;20463;-78
2023/10/03 02:17:13;;;;;;;8.10;2.92;;;;;;;;;;5054120;28;20056;-78
2023/10/03 02:19:43;;;;;;;10.35;3.17;;;;;;;;;;5053867;28;20052;-79
2023/10/03 02:22:13;;;;;;;15.80;3.78;;;;;;;;;;5055057;28;20045;-80
2023/10/03 02:24:44;;;;;;;12.75;4.57;;;;;;;;;;5072560;28;20052;-79
2023/10/03 02:27:14;;;;;;;7.30;3.53;;;;;;;;;;5073081;28;20048;-78
2023/10/03 02:29:51;;;;;;;11.38;3.80;;;;;;;;;;5055434;28;20040;-79
2023/10/03 02:32:20;;;;;;;9.32;3.13;;;;;;;;;;5036333;28;20061;-78
2023/10/03 02:34:52;;;;;;;8.73;3.80;;;;;;;;;;5030985;28;20046;-79
2023/10/03 02:37:22;;;;;;;10.38;2.97;;;;;;;;;;5033749;28;20045;-80
2023/10/03 02:39:52;;;;;;;9.18;3.13;;;;;;;;;;5036832;28;20046;-79
2023/10/03 02:42:23;;;;;;;6.45;3.08;;;;;;;;;;5034666;28;20061;-78
2023/10/03 02:44:53;;;;;;;7.93;3.03;;;;;;;;;;5036486;28;20045;-77
2023/10/03 02:47:27;;;;;;;8.60;3.70;;;;;;;;;;5034922;28;20080;-80
2023/10/03 02:49:58;;;;;;;9.20;4.03;;;;;;;;;;5035152;28;20045;-77
2023/10/03 02:52:29;;;;;;;14.77;3.72;;;;;;;;;;5035180;28;20498;-78
2023/10/03 02:54:59;;;;;;;7.50;3.65;;;;;;;;;;5036608;28;20148;-80
2023/10/03 02:57:29;;;;;;;8.15;3.65;;;;;;;;;;5036764;28;20037;-79
2023/10/03 02:59:59;;;;;;;8.10;3.58;;;;;;;;;;5036944;28;20053;-78
2023/10/03 03:02:29;;;;;;;10.35;4.43;;;;;;;;;;5019518;28;20052;-78
2023/10/03 03:04:59;;;;;;;7.70;4.13;;;;;;;;;;5034396;28;20057;-78
2023/10/03 03:07:30;;;;;;;12.63;3.40;;;;;;;;;;5035962;28;20056;-80
2023/10/03 03:10:00;;;;;;;10.48;3.47;;;;;;;;;;5036936;28;20495;-80
2023/10/03 03:12:31;;;;;;;14.82;3.60;;;;;;;;;;5034601;28;20049;-80
2023/10/03 03:15:01;;;;;;;8.23;3.28;;;;;;;;;;5036462;28;20400;-80
2023/10/03 03:17:31;;;;;;;6.78;3.50;;;;;;;;;;5036960;28;20041;-77
2023/10/03 03:20:11;;;;;;;10.40;3.22;;;;;;;;;;5034410;28;20415;-78
2023/10/03 03:22:40;;;;;;;7.07;3.85;;;;;;;;;;5034012;28;20499;-79
2023/10/03 03:25:11;;;;;;;9.55;4.38;;;;;;;;;;5036253;28;20060;-77
2023/10/03 03:27:41;;;;;;;9.60;4.20;;;;;;;;;;5036234;28;20041;-78
2023/10/03 03:32:59;;;;;;;7.07;3.30;;;;;;;;;;5075264;28;20056;-78
2023/10/03 03:35:29;;;;;;;8.45;3.75;;;;;;;;;;5075912;28;20045;-78
2023/10/03 03:37:59;;;;;;;7.70;3.47;;;;;;;;;;5057485;28;20053;-80
2023/10/03 03:40:34;;;;;;;11.48;3.60;;;;;;;;;;5075752;28;20111;-78
2023/10/03 03:43:06;;;;;;;9.68;3.35;;;;;;;;;;5075612;28;20052;-78
2023/10/03 03:45:35;;;;;;;11.13;3.22;;;;;;;;;;5058368;28;20479;-78
2023/10/03 03:48:09;;;;;;;9.00;3.40;;;;;;;;;;5075265;28;20051;-78
2023/10/03 03:50:40;;;;;;;10.95;3.30;;;;;;;;;;5074861;28;20379;-78
2023/10/03 03:53:10;;;;;;;9.68;3.63;;;;;;;;;;5075766;28;20041;-81
2023/10/03 03:55:40;;;;;;;9.07;4.00;;;;;;;;;;5075484;28;20049;-80
2023/10/03 03:58:18;;;;;;;7.18;3.83;;;;;;;;;;5074910;28;20056;-78
2023/10/03 04:00:50;;;;;;;20.23;4.03;;;;;;;;;;5075373;28;20044;-79
2023/10/03 04:03:20;;;;;;;12.38;4.47;;;;;;;;;;5075277;28;20159;-78
2023/10/03 04:05:51;;;;;;;12.73;3.70;;;;;;;;;;5074796;28;20032;-80
2023/10/03 04:08:23;;;;;;;13.55;4.05;;;;;;;;;;5075275;28;20052;-78
2023/10/03 04:10:54;;;;;;;8.85;4.50;;;;;;;;;;5075545;28;20055;-80
2023/10/03 04:13:24;;;;;;;7.72;4.38;;;;;;;;;;5075608;28;20057;-81
2023/10/03 04:15:54;;;;;;;10.38;3.58;;;;;;;;;;5074800;28;20052;-78
2023/10/03 04:18:24;;;;;;;10.23;3.92;;;;;;;;;;5075052;28;20052;-78
2023/10/03 04:20:54;;;;;;;7.88;3.28;;;;;;;;;;5074483;28;20487;-78
2023/10/03 04:23:24;;;;;;;13.02;4.57;;;;;;;;;;5074811;28;20056;-77
2023/10/03 04:25:54;;;;;;;9.52;4.53;;;;;;;;;;5057685;28;20053;-78
2023/10/03 04:28:24;;;;;;;8.75;3.60;;;;;;;;;;5057018;28;20049;-78
2023/10/03 04:30:54;;;;;;;7.03;3.33;;;;;;;;;;5074137;28;20434;-78
2023/10/03 04:33:24;;;;;;;8.93;3.65;;;;;;;;;;5075016;28;20044;-76
2023/10/03 04:35:56;;;;;;;8.75;3.22;;;;;;;;;;5074520;28;20060;-78
2023/10/03 04:38:26;;;;;;;10.02;4.22;;;;;;;;;;5074676;28;20410;-78
2023/10/03 04:40:56;;;;;;;7.13;3.10;;;;;;;;;;5074415;28;20048;-80
2023/10/03 04:43:31;;;;;;;11.15;3.22;;;;;;;;;;5056844;28;20067;-78
2023/10/03 04:46:04;;;;;;;9.07;3.67;;;;;;;;;;5074727;28;20040;-78
2023/10/03 04:48:34;;;;;;;10.50;3.03;;;;;;;;;;5074375;28;20060;-80
2023/10/03 04:51:04;;;;;;;11.30;4.13;;;;;;;;;;5074203;28;20041;-78
2023/10/03 04:53:34;;;;;;;8.38;4.07;;;;;;;;;;5055816;28;20052;-80
2023/10/03 04:56:04;;;;;;;9.05;3.38;;;;;;;;;;5074020;28;20059;-78
2023/10/03 04:58:34;;;;;;;12.05;4.13;;;;;;;;;;5074431;28;20402;-80
2023/10/03 05:01:05;;;;;;;12.85;3.50;;;;;;;;;;5055466;28;20106;-77
2023/10/03 05:03:38;;;;;;;9.85;4.88;;;;;;;;;;5073779;28;20041;-77
2023/10/03 05:06:11;;;;;;;11.43;4.90;;;;;;;;;;5073447;28;20047;-78
2023/10/03 05:08:42;;;;;;;9.95;4.03;;;;;;;;;;5073768;28;20537;-77
2023/10/03 05:11:13;;;;;;;9.55;3.50;;;;;;;;;;5073957;28;20044;-80
2023/10/03 05:13:45;;;;;;;9.02;3.20;;;;;;;;;;5074280;28;20036;-79
2023/10/03 05:16:17;;;;;;;14.25;3.65;;;;;;;;;;5039176;28;20059;-77
2023/10/03 05:18:47;;;;;;;9.60;4.32;;;;;;;;;;5073360;28;20056;-78
2023/10/03 05:21:17;;;;;;;8.10;3.80;;;;;;;;;;5073256;28;20460;-78
2023/10/03 05:23:47;;;;;;;7.93;4.07;;;;;;;;;;5056393;28;20491;-77
2023/10/03 05:26:21;;;;;;;9.13;3.30;;;;;;;;;;5073496;28;20044;-77
2023/10/03 05:28:55;;;;;;;8.40;3.33;;;;;;;;;;5073492;28;20048;-78
2023/10/03 05:31:25;;;;;;;9.85;3.90;;;;;;;;;;5072931;28;20057;-78
2023/10/03 05:33:56;;;;;;;10.75;3.50;;;;;;;;;;5056206;28;20055;-78
2023/10/03 05:36:25;;;;;;;7.00;3.30;;;;;;;;;;5072996;28;20044;-80
2023/10/03 05:38:55;;;;;;;7.38;3.80;;;;;;;;;;5073310;28;20062;-81
2023/10/03 05:41:25;;;;;;;11.65;4.35;;;;;;;;;;5073138;28;20041;-78
2023/10/03 05:43:55;;;;;;;8.18;3.88;;;;;;;;;;5054530;28;20376;-81
2023/10/03 05:46:25;;;;;;;14.52;4.32;;;;;;;;;;5072966;28;20045;-78
2023/10/03 05:48:57;;;;;;;10.43;4.38;;;;;;;;;;5073245;28;20055;-78
2023/10/03 05:51:27;;;;;;;9.45;3.72;;;;;;;;;;5073029;28;20044;-79
2023/10/03 05:53:57;;;;;;;6.47;2.97;;;;;;;;;;5054578;28;20410;-78
2023/10/03 05:56:27;;;;;;;9.88;3.42;;;;;;;;;;5072623;28;20045;-78
2023/10/03 05:58:59;;;;;;;8.23;3.47;;;;;;;;;;5072982;28;20048;-78
2023/10/03 06:01:29;;;;;;;9.80;3.05;;;;;;;;;;5073068;28;20050;-79
2023/10/03 06:03:59;;;;;;;7.30;3.17;;;;;;;;;;5073186;28;20051;-81
2023/10/03 06:06:32;;;;;;;12.23;3.30;;;;;;;;;;5073259;28;20047;-81
2023/10/03 06:09:03;;;;;;;6.03;3.05;;;;;;;;;;5055888;28;20048;-81
2023/10/03 06:11:35;;;;;;;7.32;3.53;;;;;;;;;;5055145;28;20479;-80
2023/10/03 06:14:05;;;;;;;14.68;3.95;;;;;;;;;;5072665;28;20044;-80
2023/10/03 06:16:36;;;;;;;10.25;3.60;;;;;;;;;;5072856;28;20041;-81
2023/10/03 06:19:08;;;;;;;15.07;3.83;;;;;;;;;;5072309;28;20044;-79
2023/10/03 06:21:38;;;;;;;7.30;3.63;;;;;;;;;;5072774;28;20055;-81
2023/10/03 06:24:08;;;;;;;9.55;3.67;;;;;;;;;;5055397;28;20510;-81
2023/10/03 06:26:44;;;;;;;8.82;3.90;;;;;;;;;;5073469;28;20048;-78
2023/10/03 06:29:15;;;;;;;9.13;3.90;;;;;;;;;;5072925;28;20044;-79
2023/10/03 06:31:45;;;;;;;12.18;3.85;;;;;;;;;;5074438;28;20055;-80
2023/10/03 06:34:18;;;;;;;11.10;3.65;;;;;;;;;;5074445;28;20123;-78
2023/10/03 06:36:48;;;;;;;11.02;3.75;;;;;;;;;;5074321;28;20048;-79
2023/10/03 06:39:19;;;;;;;9.23;4.10;;;;;;;;;;5055381;28;20506;-78
2023/10/03 06:41:50;;;;;;;10.68;4.30;;;;;;;;;;5055067;28;20388;-78
2023/10/03 06:44:20;;;;;;;12.02;4.57;;;;;;;;;;5072835;28;20041;-78
2023/10/03 06:46:50;;;;;;;10.07;4.22;;;;;;;;;;5054644;28;20059;-79
2023/10/03 06:49:22;;;;;;;7.68;3.65;;;;;;;;;;5055018;28;20048;-79
2023/10/03 06:51:56;;;;;;;10.07;3.55;;;;;;;;;;5072884;28;20072;-78
2023/10/03 06:54:26;;;;;;;8.00;3.35;;;;;;;;;;5072413;28;20048;-80
2023/10/03 06:56:57;;;;;;;11.05;3.65;;;;;;;;;;5054296;28;20403;-79
2023/10/03 06:59:28;;;;;;;10.65;3.67;;;;;;;;;;5072953;28;20490;-81
2023/10/03 07:01:58;;;;;;;9.40;3.83;;;;;;;;;;5072526;28;20048;-79
2023/10/03 07:04:28;;;;;;;8.43;3.45;;;;;;;;;;5072493;28;20048;-79
2023/10/03 07:07:04;;;;;;;14.15;3.33;;;;;;;;;;5055323;28;20052;-79
2023/10/03 07:09:33;;;;;;;9.35;3.85;;;;;;;;;;5072779;28;20077;-80
2023/10/03 07:12:03;;;;;;;10.80;3.63;;;;;;;;;;5072671;28;20044;-81
2023/10/03 07:14:35;;;;;;;12.02;3.80;;;;;;;;;;5054816;28;20049;-79
2023/10/03 07:17:05;;;;;;;11.82;3.90;;;;;;;;;;5072611;28;20589;-78
2023/10/03 07:19:35;;;;;;;13.15;4.07;;;;;;;;;;5053546;28;20045;-80
2023/10/03 07:22:05;;;;;;;11.07;3.83;;;;;;;;;;5072318;28;20048;-79
2023/10/03 07:24:35;;;;;;;12.40;4.43;;;;;;;;;;5073306;28;20060;-79
2023/10/03 07:27:07;;;;;;;10.00;4.22;;;;;;;;;;5076215;28;20051;-78
2023/10/03 07:29:42;;;;;;;8.48;3.95;;;;;;;;;;5075733;28;20051;-78
2023/10/03 07:32:12;;;;;;;6.30;2.83;;;;;;;;;;5076060;28;20140;-79
2023/10/03 07:34:43;;;;;;;11.13;3.53;;;;;;;;;;5076107;28;20431;-78
2023/10/03 07:37:17;;;;;;;10.50;3.83;;;;;;;;;;5076109;28;20044;-78
2023/10/03 07:39:49;;;;;;;8.45;3.03;;;;;;;;;;5057643;28;20056;-79
2023/10/03 07:42:21;;;;;;;7.60;3.08;;;;;;;;;;5075392;28;20044;-78
2023/10/03 07:44:52;;;;;;;7.03;3.00;;;;;;;;;;5058306;28;20056;-81
2023/10/03 07:47:22;;;;;;;9.65;4.07;;;;;;;;;;5076045;28;20051;-79
2023/10/03 07:49:52;;;;;;;7.53;3.22;;;;;;;;;;5057306;28;20063;-78
2023/10/03 07:52:22;;;;;;;8.63;3.67;;;;;;;;;;5075581;28;20048;-81
2023/10/03 07:54:55;;;;;;;12.07;3.50;;;;;;;;;;5075356;28;20067;-79
2023/10/03 07:57:25;;;;;;;7.22;2.95;;;;;;;;;;5058025;28;20055;-78
2023/10/03 07:59:55;;;;;;;8.95;3.63;;;;;;;;;;5075433;28;20483;-78
2023/10/03 08:02:32;;;;;;;10.70;3.42;;;;;;;;;;5077203;28;20499;-80
2023/10/03 08:05:02;;;;;;;8.25;3.40;;;;;;;;;;5074724;28;20044;-78
2023/10/03 08:07:32;;;;;;;6.30;3.20;;;;;;;;;;5072694;28;20489;-79
2023/10/03 08:10:03;;;;;;;9.50;3.42;;;;;;;;;;5083104;28;20047;-79
2023/10/03 08:12:38;;;;;;;11.18;3.40;;;;;;;;;;5094858;28;20043;-78
2023/10/03 08:15:17;;;;;;;10.25;3.65;;;;;;;;;;5095294;28;20505;-78
2023/10/03 08:17:49;;;;;;;9.77;3.17;;;;;;;;;;5095157;28;20052;-80
2023/10/03 08:20:23;;;;;;;10.65;3.50;;;;;;;;;;5094959;28;20048;-78
2023/10/03 08:22:55;;;;;;;7.93;3.40;;;;;;;;;;5095164;28;20048;-80
2023/10/03 08:25:25;;;;;;;8.05;3.55;;;;;;;;;;5095185;28;20044;-78
2023/10/03 08:27:55;;;;;;;8.98;4.28;;;;;;;;;;5094997;28;20048;-79
2023/10/03 08:30:28;;;;;;;11.93;3.35;;;;;;;;;;5076235;28;20056;-80
2023/10/03 08:33:05;;;;;;;7.40;3.30;;;;;;;;;;5094869;28;20056;-79
2023/10/03 08:35:39;;;;;;;8.65;3.70;;;;;;;;;;5095119;28;20048;-79
2023/10/03 08:38:13;;;;;;;14.05;3.88;;;;;;;;;;5095152;28;20048;-79
2023/10/03 08:40:49;;;;;;;6.72;3.10;;;;;;;;;;5094839;28;20048;-78
2023/10/03 08:43:25;;;;;;;9.77;4.50;;;;;;;;;;5095101;28;20406;-79
2023/10/03 08:46:00;;;;;;;9.05;3.90;;;;;;;;;;5077349;28;20048;-78
2023/10/03 08:48:32;;;;;;;10.48;4.47;;;;;;;;;;5077029;28;20501;-78
2023/10/03 08:51:03;;;;;;;9.07;3.83;;;;;;;;;;5075876;28;20051;-79
2023/10/03 08:53:33;;;;;;;8.43;3.72;;;;;;;;;;5094099;28;20051;-79
2023/10/03 08:56:05;;;;;;;10.85;3.63;;;;;;;;;;5094519;28;20063;-78
2023/10/03 08:58:35;;;;;;;11.15;4.32;;;;;;;;;;5076790;28;20044;-79
2023/10/03 09:01:07;;;;;;;9.95;4.00;;;;;;;;;;5093744;28;20359;-78
2023/10/03 09:03:47;;;;;;;15.07;4.65;;;;;;;;;;5093975;28;20051;-81
2023/10/03 09:06:23;;;;;;;9.52;4.18;;;;;;;;;;5075760;28;20051;-78
2023/10/03 09:09:08;;;;;;;11.57;4.97;;;;;;;;;;5094567;28;20040;-80
2023/10/03 09:11:38;;;;;;;16.20;4.70;;;;;;;;;;5094588;28;20160;-80
2023/10/03 09:14:29;;;;;;;14.38;4.45;;;;;;;;;;5093769;28;20050;-80
2023/10/03 09:16:59;;;;;;;10.48;4.32;;;;;;;;;;5093948;28;20059;-79
2023/10/03 09:19:44;;;;;;;11.05;4.40;;;;;;;;;;5093877;28;20150;-79
2023/10/03 09:22:30;;;;;;;9.55;4.05;;;;;;;;;;5093945;28;20051;-78
2023/10/03 09:25:01;;;;;;;15.70;5.03;;;;;;;;;;5093721;28;20036;-79
2023/10/03 09:27:31;;;;;;;11.10;5.13;;;;;;;;;;5094032;28;20035;-79
2023/10/03 09:30:09;;;;;;;13.10;4.13;;;;;;;;;;5075233;28;20052;-79
2023/10/03 09:32:39;;;;;;;9.52;3.80;;;;;;;;;;5093436;28;20417;-79
2023/10/03 09:35:09;;;;;;;10.93;4.18;;;;;;;;;;5093342;28;20523;-82
2023/10/03 09:37:43;;;;;;;12.32;4.45;;;;;;;;;;5093603;28;20063;-81
2023/10/03 09:40:16;;;;;;;12.05;4.75;;;;;;;;;;5094315;28;20063;-79
2023/10/03 09:42:50;;;;;;;17.30;5.50;;;;;;;;;;5074792;28;20051;-79
2023/10/03 09:45:31;;;;;;;11.10;5.30;;;;;;;;;;5093674;28;20406;-79
2023/10/03 09:48:05;;;;;;;10.85;4.30;;;;;;;;;;5093307;28;20040;-79
2023/10/03 09:50:36;;;;;;;9.52;4.30;;;;;;;;;;5075830;28;20044;-80
2023/10/03 09:53:08;;;;;;;11.48;4.65;;;;;;;;;;5093538;28;20044;-78
2023/10/03 09:55:41;;;;;;;12.68;4.57;;;;;;;;;;5092415;28;20052;-80
2023/10/03 09:58:11;;;;;;;9.40;4.20;;;;;;;;;;5053153;28;20045;-80
2023/10/03 10:00:51;;;;;;;19.70;6.13;;;;;;;;;;5053136;28;20044;-79
2023/10/03 10:03:27;;;;;;;25.58;5.95;;;;;;;;;;5035509;28;20045;-80
2023/10/03 10:06:17;;;;;;;16.58;5.28;;;;;;;;;;5053030;28;20060;-80
2023/10/03 10:09:23;;;;;;;20.58;7.53;;;;;;;;;;5052770;28;20045;-78
2023/10/03 10:12:11;;;;;;;19.30;6.43;;;;;;;;;;5053195;28;20044;-79
2023/10/03 10:17:51;;;;;;;20.75;8.57;;;;;;;;;;5053968;28;20052;-78
2023/10/03 10:20:38;;;;;;;25.00;7.82;;;;;;;;;;5070412;28;20060;-78
2023/10/03 10:25:43;;;;;;;23.80;8.52;;;;;;;;;;5073129;28;20071;-80
2023/10/03 10:28:22;;;;;;;23.15;8.00;;;;;;;;;;5073079;28;20041;-79
2023/10/03 10:31:11;;;;;;;20.58;8.68;;;;;;;;;;5072706;28;20048;-78
2023/10/03 10:33:41;;;;;;;22.92;10.32;;;;;;;;;;5072397;28;20041;-79
2023/10/03 10:36:12;;;;;;;20.02;8.02;;;;;;;;;;5053984;28;20056;-79
2023/10/03 10:38:42;;;;;;;14.15;6.80;;;;;;;;;;5071808;28;20470;-80
2023/10/03 10:41:21;;;;;;;22.38;7.90;;;;;;;;;;5071621;28;20051;-79
2023/10/03 10:44:06;;;;;;;;;;;;;;;;;;5072065;28;20051;-80
2023/10/03 10:46:39;;;;;;;19.85;8.10;;;;;;;;;;5069274;28;19928;-81
2023/10/03 10:49:31;;;;;;;22.83;8.68;;;;;;;;;;5071137;28;20044;-82
2023/10/03 10:52:01;;;;;;;;;;;;;;;;;;5069875;28;20040;-80
2023/10/03 10:54:31;;;;;;;19.45;7.90;;;;;;;;;;5071497;28;19920;-79
2023/10/03 10:57:06;;;;;;;24.15;9.98;;;;;;;;;;5054443;28;20063;-80
2023/10/03 10:59:40;;;;;;;17.85;7.80;;;;;;;;;;5075398;28;20044;-80
2023/10/03 11:02:20;;;;;;;19.80;7.70;;;;;;;;;;5057558;28;20063;-81
2023/10/03 11:04:58;;;;;;;17.15;7.13;;;;;;;;;;5076342;28;20056;-82
2023/10/03 11:07:29;;;;;;;17.10;7.55;;;;;;;;;;5073570;28;20044;-82
2023/10/03 11:10:07;;;;;;;;;;;;;;;;;;5076958;28;20049;-81
2023/10/03 11:13:03;;;;;;;;;;;;;;;;;;5076541;28;19920;-81
2023/10/03 11:15:34;;;;;;;19.17;7.20;;;;;;;;;;5076511;28;19927;-80
2023/10/03 11:18:04;;;;;;;27.05;6.38;;;;;;;;;;5058796;28;20064;-82
2023/10/03 11:20:34;;;;;;;17.90;7.38;;;;;;;;;;5057074;28;20048;-83
2023/10/03 11:23:06;;;;;;;17.73;5.85;;;;;;;;;;5076097;28;20044;-80
2023/10/03 11:25:36;;;;;;;15.00;6.50;;;;;;;;;;5058291;28;20056;-80
2023/10/03 11:28:07;;;;;;;14.88;5.65;;;;;;;;;;5056950;28;20074;-80
2023/10/03 11:30:37;;;;;;;13.02;5.00;;;;;;;;;;5058369;28;20494;-81
2023/10/03 11:33:07;;;;;;;12.95;4.82;;;;;;;;;;5039656;28;20052;-82
2023/10/03 11:35:37;;;;;;;12.80;5.07;;;;;;;;;;5056023;28;20051;-84
2023/10/03 11:38:07;;;;;;;14.05;5.70;;;;;;;;;;5056621;28;20048;-80
2023/10/03 11:40:40;;;;;;;11.50;4.40;;;;;;;;;;5075643;28;20051;-78
2023/10/03 11:43:10;;;;;;;13.25;5.13;;;;;;;;;;5073923;28;20402;-77
2023/10/03 11:45:46;;;;;;;15.73;4.85;;;;;;;;;;5074461;28;20047;-80
2023/10/03 11:48:18;;;;;;;12.45;4.45;;;;;;;;;;5040335;28;20402;-81
2023/10/03 11:50:49;;;;;;;17.35;5.00;;;;;;;;;;5074477;28;20048;-81
2023/10/03 11:53:21;;;;;;;10.07;5.55;;;;;;;;;;5075098;28;20059;-79
2023/10/03 11:55:53;;;;;;;13.23;5.05;;;;;;;;;;5075293;28;20052;-82
2023/10/03 11:58:23;;;;;;;9.60;4.10;;;;;;;;;;5056783;28;20044;-82
2023/10/03 12:00:54;;;;;;;14.75;3.83;;;;;;;;;;5071649;28;20055;-81
2023/10/03 12:03:24;;;;;;;14.00;4.38;;;;;;;;;;5054450;28;20052;-82
2023/10/03 12:05:56;;;;;;;8.98;4.70;;;;;;;;;;5056931;28;20049;-80
2023/10/03 12:08:27;;;;;;;;;;;;;;;;;;5056374;28;20394;-84
2023/10/03 12:10:57;;;;;;;10.63;4.70;;;;;;;;;;5072812;28;19921;-83
2023/10/03 12:13:27;;;;;;;13.27;4.05;;;;;;;;;;5071656;28;20048;-79
2023/10/03 12:15:58;;;;;;;11.02;4.65;;;;;;;;;;5073451;28;20033;-80
2023/10/03 12:18:28;;;;;;;11.02;4.78;;;;;;;;;;5073912;28;20434;-80
2023/10/03 12:20:58;;;;;;;8.52;3.92;;;;;;;;;;5056566;28;20497;-80
2023/10/03 12:23:29;;;;;;;9.85;4.45;;;;;;;;;;5056914;28;20525;-81
2023/10/03 12:25:59;;;;;;;8.52;3.38;;;;;;;;;;5074144;28;20055;-80
2023/10/03 12:28:49;;;;;;;9.50;3.92;;;;;;;;;;5073204;28;20099;-80
2023/10/03 12:31:26;;;;;;;9.20;3.33;;;;;;;;;;5073828;28;20410;-81
2023/10/03 12:33:56;;;;;;;8.60;3.95;;;;;;;;;;5055451;28;20052;-78
2023/10/03 12:36:26;;;;;;;8.82;4.10;;;;;;;;;;5073242;28;20414;-80
2023/10/03 12:38:59;;;;;;;11.00;3.83;;;;;;;;;;5073712;28;20491;-81
2023/10/03 12:41:30;;;;;;;7.57;4.40;;;;;;;;;;5073902;28;20052;-81
2023/10/03 12:44:00;;;;;;;8.25;4.40;;;;;;;;;;5073931;28;20047;-79
2023/10/03 12:46:30;;;;;;;14.15;5.35;;;;;;;;;;5055031;28;20048;-80
2023/10/03 12:49:01;;;;;;;9.50;3.50;;;;;;;;;;5073470;28;20047;-78
2023/10/03 12:51:31;;;;;;;10.15;3.92;;;;;;;;;;5073566;28;20056;-81
2023/10/03 12:54:04;;;;;;;8.27;4.50;;;;;;;;;;5074007;28;20057;-80
2023/10/03 12:56:34;;;;;;;8.45;4.50;;;;;;;;;;5056215;28;20059;-79
2023/10/03 12:59:05;;;;;;;8.45;4.18;;;;;;;;;;5073105;28;20040;-80
2023/10/03 13:01:35;;;;;;;9.63;4.18;;;;;;;;;;5072966;28;20071;-83
2023/10/03 13:04:06;;;;;;;10.32;4.45;;;;;;;;;;5072912;28;20131;-80
2023/10/03 13:06:36;;;;;;;11.65;4.00;;;;;;;;;;5054534;28;20059;-82
2023/10/03 13:09:07;;;;;;;10.55;4.47;;;;;;;;;;5070151;28;20479;-80
2023/10/03 13:11:37;;;;;;;10.10;4.43;;;;;;;;;;5053788;28;20067;-81
2023/10/03 13:14:09;;;;;;;8.57;3.90;;;;;;;;;;5072871;28;20032;-81
2023/10/03 13:16:39;;;;;;;11.60;4.35;;;;;;;;;;5051594;28;20041;-82
2023/10/03 13:19:10;;;;;;;10.57;3.80;;;;;;;;;;5053937;28;20059;-81
2023/10/03 13:21:42;;;;;;;10.30;4.63;;;;;;;;;;5054021;28;20422;-81
2023/10/03 13:24:13;;;;;;;8.65;3.92;;;;;;;;;;5054056;28;20047;-79
2023/10/03 13:26:44;;;;;;;12.10;4.28;;;;;;;;;;5072539;28;20427;-80
2023/10/03 13:29:14;;;;;;;10.43;4.28;;;;;;;;;;5072551;28;20474;-81
2023/10/03 13:31:45;;;;;;;12.82;4.47;;;;;;;;;;5072607;28;20419;-83
2023/10/03 13:34:15;;;;;;;8.90;3.67;;;;;;;;;;5072453;28;20483;-81
2023/10/03 13:36:45;;;;;;;10.65;4.72;;;;;;;;;;5070012;28;20494;-81
2023/10/03 13:39:19;;;;;;;10.35;4.60;;;;;;;;;;5073803;28;20040;-81
2023/10/03 13:41:49;;;;;;;13.27;4.50;;;;;;;;;;5035812;28;20502;-81
2023/10/03 13:44:21;;;;;;;9.10;4.93;;;;;;;;;;5054901;28;20084;-79
2023/10/03 13:46:50;;;;;;;7.13;3.83;;;;;;;;;;5073131;28;20053;-79
2023/10/03 13:49:24;;;;;;;8.73;4.97;;;;;;;;;;5054773;28;20454;-81
2023/10/03 13:51:54;;;;;;;8.88;4.57;;;;;;;;;;5054837;28;20049;-81
2023/10/03 13:54:24;;;;;;;10.38;4.07;;;;;;;;;;5054448;28;20055;-82
2023/10/03 13:56:54;;;;;;;8.88;3.85;;;;;;;;;;5072641;28;20071;-82
2023/10/03 13:59:27;;;;;;;10.43;4.50;;;;;;;;;;5072320;28;20053;-84
2023/10/03 14:01:57;;;;;;;8.10;3.75;;;;;;;;;;5072841;28;20051;-80
2023/10/03 14:04:27;;;;;;;13.32;3.97;;;;;;;;;;5054334;28;20044;-81
2023/10/03 14:06:58;;;;;;;12.90;5.47;;;;;;;;;;5055466;28;20059;-81
2023/10/03 14:09:28;;;;;;;9.80;3.30;;;;;;;;;;5072485;28;20044;-81
2023/10/03 14:12:04;;;;;;;10.10;3.63;;;;;;;;;;5072176;28;20048;-82
2023/10/03 14:14:35;;;;;;;7.55;3.35;;;;;;;;;;5054708;28;20057;-80
2023/10/03 14:17:06;;;;;;;8.77;3.58;;;;;;;;;;5072321;28;20055;-83
2023/10/03 14:19:38;;;;;;;7.82;3.53;;;;;;;;;;5053670;28;20059;-81
2023/10/03 14:22:07;;;;;;;8.35;3.72;;;;;;;;;;5072633;28;20052;-81
2023/10/03 14:24:40;;;;;;;6.88;4.30;;;;;;;;;;5071874;28;20437;-82
2023/10/03 14:27:09;;;;;;;9.15;3.63;;;;;;;;;;5072953;28;20348;-82
2023/10/03 14:29:42;;;;;;;13.27;5.25;;;;;;;;;;5071867;28;20040;-82
2023/10/03 14:32:14;;;;;;;9.93;4.72;;;;;;;;;;5071404;28;20059;-80
2023/10/03 14:34:45;;;;;;;7.93;4.45;;;;;;;;;;5070695;28;20049;-82
2023/10/03 14:37:14;;;;;;;10.07;4.03;;;;;;;;;;5054101;28;20470;-81
2023/10/03 14:39:44;;;;;;;10.45;4.43;;;;;;;;;;5072511;28;20055;-81
2023/10/03 14:42:16;;;;;;;12.63;4.20;;;;;;;;;;5054093;28;20060;-82
2023/10/03 14:44:46;;;;;;;9.30;4.43;;;;;;;;;;5070874;28;20063;-82
2023/10/03 14:47:16;;;;;;;9.07;5.07;;;;;;;;;;5071306;28;20387;-82
2023/10/03 14:49:47;;;;;;;12.32;5.00;;;;;;;;;;5070728;28;20048;-83
2023/10/03 14:52:18;;;;;;;10.05;5.03;;;;;;;;;;5071971;28;20517;-83
2023/10/03 14:54:49;;;;;;;9.45;4.97;;;;;;;;;;5054075;28;20044;-82
2023/10/03 14:57:19;;;;;;;8.52;5.25;;;;;;;;;;5071676;28;20047;-84
2023/10/03 14:59:50;;;;;;;11.73;4.07;;;;;;;;;;5071605;28;20410;-82
2023/10/03 15:02:20;;;;;;;11.88;5.13;;;;;;;;;;5053676;28;20067;-82
2023/10/03 15:04:51;;;;;;;7.10;4.13;;;;;;;;;;5071641;28;20048;-80
2023/10/03 15:07:21;;;;;;;8.50;5.28;;;;;;;;;;5053405;28;20041;-79
2023/10/03 15:09:51;;;;;;;7.60;5.57;;;;;;;;;;5068061;28;20048;-79
2023/10/03 15:12:21;;;;;;;9.98;4.93;;;;;;;;;;5071266;28;20483;-80
2023/10/03 15:14:52;;;;;;;9.20;4.60;;;;;;;;;;5053099;28;20049;-82